sensor_id;sensor_type;location;lat;lon;timestamp;pressure;altitude;pressure_sealevel;temperature;humidity
58092;BME280;43896;48.178;11.578;2023-04-08T00:00:04;95870.13;;;8.12;62.58
58092;BME280;43896;48.178;11.578;2023-04-08T00:02:30;95900.72;;;8.21;62.52
58092;BME280;43896;48.178;11.578;2023-04-08T00:04:56;95826.38;;;7.65;62.96
58092;BME280;43896;48.178;11.578;2023-04-08T00:07:21;95861.75;;;7.88;63.20
58092;BME280;43896;48.178;11.578;2023-04-08T00:09:46;95808.91;;;7.56;63.03
58092;BME280;43896;48.178;11.578;2023-04-08T00:12:12;95934.50;;;8.24;63.09
58092;BME280;43896;48.178;11.578;2023-04-08T00:14:37;95860.94;;;7.78;64.11
58092;BME280;43896;48.178;11.578;2023-04-08T00:17:03;95947.47;;;8.25;63.98
58092;BME280;43896;48.178;11.578;2023-04-08T00:19:28;95907.75;;;8.11;63.91
58092;BME280;43896;48.178;11.578;2023-04-08T00:21:53;95944.44;;;8.20;64.39
58092;BME280;43896;48.178;11.578;2023-04-08T00:24:19;95925.00;;;8.13;63.84
58092;BME280;43896;48.178;11.578;2023-04-08T00:26:44;95916.31;;;8.13;63.85
58092;BME280;43896;48.178;11.578;2023-04-08T00:29:09;95856.66;;;7.87;63.72
58092;BME280;43896;48.178;11.578;2023-04-08T00:31:35;95859.59;;;7.84;64.26
58092;BME280;43896;48.178;11.578;2023-04-08T00:34:00;95924.13;;;8.32;63.57
58092;BME280;43896;48.178;11.578;2023-04-08T00:36:26;95917.25;;;8.21;63.67
58092;BME280;43896;48.178;11.578;2023-04-08T00:38:51;95838.94;;;7.71;64.36
58092;BME280;43896;48.178;11.578;2023-04-08T00:41:17;95911.75;;;8.15;64.37
58092;BME280;43896;48.178;11.578;2023-04-08T00:43:42;95941.94;;;8.29;64.17
58092;BME280;43896;48.178;11.578;2023-04-08T00:46:08;95940.41;;;8.16;64.28
58092;BME280;43896;48.178;11.578;2023-04-08T00:48:34;95820.91;;;7.48;64.63
58092;BME280;43896;48.178;11.578;2023-04-08T00:50:59;95867.72;;;7.71;64.96
58092;BME280;43896;48.178;11.578;2023-04-08T00:53:25;95801.91;;;7.37;64.44
58092;BME280;43896;48.178;11.578;2023-04-08T00:55:50;95864.56;;;7.67;64.51
58092;BME280;43896;48.178;11.578;2023-04-08T00:58:17;95902.28;;;7.84;65.16
58092;BME280;43896;48.178;11.578;2023-04-08T01:00:49;95904.09;;;7.84;65.19
58092;BME280;43896;48.178;11.578;2023-04-08T01:06:09;95937.44;;;8.01;65.64
58092;BME280;43896;48.178;11.578;2023-04-08T01:08:38;95871.84;;;7.54;66.17
58092;BME280;43896;48.178;11.578;2023-04-08T01:11:09;95873.81;;;7.62;65.59
58092;BME280;43896;48.178;11.578;2023-04-08T01:13:37;95886.31;;;7.68;65.83
58092;BME280;43896;48.178;11.578;2023-04-08T01:16:05;95852.31;;;7.39;66.51
58092;BME280;43896;48.178;11.578;2023-04-08T01:18:32;95812.25;;;7.19;66.08
58092;BME280;43896;48.178;11.578;2023-04-08T01:21:00;95912.22;;;7.81;66.38
58092;BME280;43896;48.178;11.578;2023-04-08T01:23:49;95930.94;;;7.96;66.51
58092;BME280;43896;48.178;11.578;2023-04-08T01:26:23;95850.53;;;7.39;66.37
58092;BME280;43896;48.178;11.578;2023-04-08T01:28:52;95941.16;;;7.89;66.43
58092;BME280;43896;48.178;11.578;2023-04-08T01:31:19;95849.16;;;7.35;65.97
58092;BME280;43896;48.178;11.578;2023-04-08T01:33:46;95922.84;;;7.79;66.43
58092;BME280;43896;48.178;11.578;2023-04-08T01:36:13;95830.13;;;7.23;66.33
58092;BME280;43896;48.178;11.578;2023-04-08T01:38:39;95939.22;;;7.81;66.75
58092;BME280;43896;48.178;11.578;2023-04-08T01:41:08;95842.25;;;7.24;66.53
58092;BME280;43896;48.178;11.578;2023-04-08T01:43:34;95933.16;;;7.91;66.50
58092;BME280;43896;48.178;11.578;2023-04-08T01:46:01;95878.22;;;7.51;66.35
58092;BME280;43896;48.178;11.578;2023-04-08T01:48:27;95893.22;;;7.59;66.31
58092;BME280;43896;48.178;11.578;2023-04-08T01:50:53;95848.31;;;7.35;66.68
58092;BME280;43896;48.178;11.578;2023-04-08T01:53:20;95865.66;;;7.45;65.89
58092;BME280;43896;48.178;11.578;2023-04-08T01:55:46;95946.94;;;7.83;66.64
58092;BME280;43896;48.178;11.578;2023-04-08T01:58:17;95825.19;;;7.10;66.40
58092;BME280;43896;48.178;11.578;2023-04-08T02:00:44;95877.38;;;7.31;66.94
58092;BME280;43896;48.178;11.578;2023-04-08T02:03:12;95832.63;;;7.05;67.02
58092;BME280;43896;48.178;11.578;2023-04-08T02:05:39;95888.38;;;7.35;67.17
58092;BME280;43896;48.178;11.578;2023-04-08T02:08:04;95892.25;;;7.31;67.35
58092;BME280;43896;48.178;11.578;2023-04-08T02:10:30;95948.59;;;7.64;67.39
58092;BME280;43896;48.178;11.578;2023-04-08T02:12:55;95947.50;;;7.67;67.78
58092;BME280;43896;48.178;11.578;2023-04-08T02:15:21;95856.72;;;7.09;67.39
58092;BME280;43896;48.178;11.578;2023-04-08T02:17:51;95953.13;;;7.53;67.83
58092;BME280;43896;48.178;11.578;2023-04-08T02:20:37;95914.13;;;7.49;67.17
58092;BME280;43896;48.178;11.578;2023-04-08T02:23:11;95855.03;;;7.08;66.73
58092;BME280;43896;48.178;11.578;2023-04-08T02:25:39;95849.41;;;7.03;67.60
58092;BME280;43896;48.178;11.578;2023-04-08T02:28:09;95879.41;;;7.18;67.27
58092;BME280;43896;48.178;11.578;2023-04-08T02:30:36;95914.53;;;7.35;67.47
58092;BME280;43896;48.178;11.578;2023-04-08T02:33:03;95866.63;;;7.05;67.75
58092;BME280;43896;48.178;11.578;2023-04-08T02:35:29;95850.94;;;7.05;67.67
58092;BME280;43896;48.178;11.578;2023-04-08T02:37:55;95873.09;;;7.11;67.63
58092;BME280;43896;48.178;11.578;2023-04-08T02:40:31;95929.03;;;7.39;68.18
58092;BME280;43896;48.178;11.578;2023-04-08T02:42:58;95867.97;;;6.90;67.92
58092;BME280;43896;48.178;11.578;2023-04-08T02:45:30;95879.66;;;6.95;68.44
58092;BME280;43896;48.178;11.578;2023-04-08T02:47:56;95889.31;;;7.14;68.14
58092;BME280;43896;48.178;11.578;2023-04-08T02:50:21;95814.09;;;6.58;68.91
58092;BME280;43896;48.178;11.578;2023-04-08T02:52:47;95907.25;;;7.29;67.70
58092;BME280;43896;48.178;11.578;2023-04-08T02:55:12;95912.91;;;7.34;68.22
58092;BME280;43896;48.178;11.578;2023-04-08T02:57:39;95823.03;;;6.65;68.14
58092;BME280;43896;48.178;11.578;2023-04-08T03:00:05;95923.50;;;7.32;68.89
58092;BME280;43896;48.178;11.578;2023-04-08T03:02:31;95857.09;;;6.85;68.91
58092;BME280;43896;48.178;11.578;2023-04-08T03:04:57;95930.25;;;7.35;68.95
58092;BME280;43896;48.178;11.578;2023-04-08T03:07:22;95841.34;;;6.65;68.30
58092;BME280;43896;48.178;11.578;2023-04-08T03:09:48;95869.88;;;6.88;68.96
58092;BME280;43896;48.178;11.578;2023-04-08T03:12:13;95859.81;;;6.83;69.34
58092;BME280;43896;48.178;11.578;2023-04-08T03:14:38;95827.47;;;6.74;69.07
58092;BME280;43896;48.178;11.578;2023-04-08T03:17:04;95873.88;;;6.92;69.14
58092;BME280;43896;48.178;11.578;2023-04-08T03:19:30;95881.88;;;7.00;69.11
58092;BME280;43896;48.178;11.578;2023-04-08T03:21:55;95936.16;;;7.27;68.66
58092;BME280;43896;48.178;11.578;2023-04-08T03:24:20;95839.16;;;6.70;69.05
58092;BME280;43896;48.178;11.578;2023-04-08T03:26:46;95928.19;;;7.39;69.05
58092;BME280;43896;48.178;11.578;2023-04-08T03:29:11;95900.19;;;7.00;69.11
58092;BME280;43896;48.178;11.578;2023-04-08T03:31:36;95945.94;;;7.35;69.61
58092;BME280;43896;48.178;11.578;2023-04-08T03:34:02;95877.88;;;7.06;69.12
58092;BME280;43896;48.178;11.578;2023-04-08T03:36:27;95907.81;;;7.42;68.69
58092;BME280;43896;48.178;11.578;2023-04-08T03:38:52;95953.56;;;7.67;68.97
58092;BME280;43896;48.178;11.578;2023-04-08T03:41:18;95842.41;;;7.03;68.49
58092;BME280;43896;48.178;11.578;2023-04-08T03:43:43;95964.03;;;7.67;68.68
58092;BME280;43896;48.178;11.578;2023-04-08T03:46:08;95922.97;;;7.48;68.57
58092;BME280;43896;48.178;11.578;2023-04-08T03:48:34;95855.59;;;7.02;68.73
58092;BME280;43896;48.178;11.578;2023-04-08T03:50:59;95961.00;;;7.72;68.56
58092;BME280;43896;48.178;11.578;2023-04-08T03:53:25;95855.72;;;7.10;68.43
58092;BME280;43896;48.178;11.578;2023-04-08T03:55:52;95884.13;;;7.24;68.16
58092;BME280;43896;48.178;11.578;2023-04-08T03:58:17;95872.13;;;7.22;68.08
58092;BME280;43896;48.178;11.578;2023-04-08T04:00:43;95854.06;;;6.99;68.95
58092;BME280;43896;48.178;11.578;2023-04-08T04:03:08;95887.53;;;7.15;68.95
58092;BME280;43896;48.178;11.578;2023-04-08T04:05:37;95867.31;;;7.07;69.19
58092;BME280;43896;48.178;11.578;2023-04-08T04:08:02;95833.16;;;6.89;68.72
58092;BME280;43896;48.178;11.578;2023-04-08T04:10:28;95898.97;;;7.33;69.19
58092;BME280;43896;48.178;11.578;2023-04-08T04:12:53;95886.72;;;7.14;69.22
58092;BME280;43896;48.178;11.578;2023-04-08T04:15:18;95891.22;;;7.03;69.20
58092;BME280;43896;48.178;11.578;2023-04-08T04:17:46;95929.69;;;7.31;69.17
58092;BME280;43896;48.178;11.578;2023-04-08T04:20:12;95985.25;;;7.74;68.95
58092;BME280;43896;48.178;11.578;2023-04-08T04:22:37;95916.91;;;7.38;68.64
58092;BME280;43896;48.178;11.578;2023-04-08T04:25:03;95988.81;;;7.73;69.01
58092;BME280;43896;48.178;11.578;2023-04-08T04:27:28;95960.72;;;7.56;69.32
58092;BME280;43896;48.178;11.578;2023-04-08T04:29:53;95992.97;;;7.76;69.40
58092;BME280;43896;48.178;11.578;2023-04-08T04:32:19;95998.47;;;7.73;69.26
58092;BME280;43896;48.178;11.578;2023-04-08T04:34:44;95947.19;;;7.50;69.25
58092;BME280;43896;48.178;11.578;2023-04-08T04:37:10;95942.25;;;7.38;69.40
58092;BME280;43896;48.178;11.578;2023-04-08T04:39:36;95873.06;;;7.01;68.93
58092;BME280;43896;48.178;11.578;2023-04-08T04:42:01;95928.31;;;7.27;69.41
58092;BME280;43896;48.178;11.578;2023-04-08T04:44:27;95879.66;;;6.95;69.97
58092;BME280;43896;48.178;11.578;2023-04-08T04:46:52;95961.09;;;7.51;69.55
58092;BME280;43896;48.178;11.578;2023-04-08T04:49:18;96010.59;;;7.83;69.41
58092;BME280;43896;48.178;11.578;2023-04-08T04:51:43;96017.78;;;7.81;69.43
58092;BME280;43896;48.178;11.578;2023-04-08T04:54:09;95882.41;;;6.94;69.82
58092;BME280;43896;48.178;11.578;2023-04-08T04:56:34;96001.91;;;7.73;69.64
58092;BME280;43896;48.178;11.578;2023-04-08T04:58:59;96011.72;;;7.81;69.69
58092;BME280;43896;48.178;11.578;2023-04-08T05:01:25;95939.78;;;7.56;69.19
58092;BME280;43896;48.178;11.578;2023-04-08T05:03:50;95954.38;;;7.58;68.98
58092;BME280;43896;48.178;11.578;2023-04-08T05:06:16;95929.84;;;7.49;68.95
58092;BME280;43896;48.178;11.578;2023-04-08T05:08:41;96012.84;;;7.98;69.13
58092;BME280;43896;48.178;11.578;2023-04-08T05:11:10;95915.38;;;7.36;69.34
58092;BME280;43896;48.178;11.578;2023-04-08T05:13:35;96005.38;;;7.93;69.10
58092;BME280;43896;48.178;11.578;2023-04-08T05:16:01;95972.03;;;7.76;68.98
58092;BME280;43896;48.178;11.578;2023-04-08T05:18:26;96012.81;;;8.07;68.98
58092;BME280;43896;48.178;11.578;2023-04-08T05:20:51;95890.44;;;7.22;69.23
58092;BME280;43896;48.178;11.578;2023-04-08T05:23:17;95931.09;;;7.45;69.00
58092;BME280;43896;48.178;11.578;2023-04-08T05:25:42;96023.72;;;8.03;69.68
58092;BME280;43896;48.178;11.578;2023-04-08T05:28:08;95880.66;;;7.33;68.89
58092;BME280;43896;48.178;11.578;2023-04-08T05:30:36;95945.31;;;7.72;68.80
58092;BME280;43896;48.178;11.578;2023-04-08T05:33:02;95939.66;;;7.67;69.43
58092;BME280;43896;48.178;11.578;2023-04-08T05:35:28;96012.53;;;8.20;68.88
58092;BME280;43896;48.178;11.578;2023-04-08T05:37:53;95909.88;;;7.68;68.39
58092;BME280;43896;48.178;11.578;2023-04-08T05:40:18;95872.81;;;7.33;68.79
58092;BME280;43896;48.178;11.578;2023-04-08T05:42:44;95982.22;;;8.08;68.40
58092;BME280;43896;48.178;11.578;2023-04-08T05:45:09;95993.13;;;8.13;68.70
58092;BME280;43896;48.178;11.578;2023-04-08T05:47:35;96019.00;;;8.36;68.61
58092;BME280;43896;48.178;11.578;2023-04-08T05:50:00;96013.06;;;8.34;68.54
58092;BME280;43896;48.178;11.578;2023-04-08T05:52:26;95995.75;;;8.13;68.43
58092;BME280;43896;48.178;11.578;2023-04-08T05:54:51;96013.09;;;8.14;69.13
58092;BME280;43896;48.178;11.578;2023-04-08T05:57:16;96004.56;;;8.22;68.82
58092;BME280;43896;48.178;11.578;2023-04-08T05:59:41;96016.13;;;8.29;69.00
58092;BME280;43896;48.178;11.578;2023-04-08T06:02:07;96001.50;;;8.26;68.79
58092;BME280;43896;48.178;11.578;2023-04-08T06:04:32;95991.00;;;8.26;68.75
58092;BME280;43896;48.178;11.578;2023-04-08T06:06:58;96029.09;;;8.50;68.08
58092;BME280;43896;48.178;11.578;2023-04-08T06:09:25;96026.88;;;8.36;69.11
58092;BME280;43896;48.178;11.578;2023-04-08T06:11:50;96037.91;;;8.39;69.01
58092;BME280;43896;48.178;11.578;2023-04-08T06:14:16;95932.34;;;7.61;69.20
58092;BME280;43896;48.178;11.578;2023-04-08T06:16:41;95982.38;;;7.77;69.89
58092;BME280;43896;48.178;11.578;2023-04-08T06:19:06;95970.66;;;7.81;69.57
58092;BME280;43896;48.178;11.578;2023-04-08T06:21:32;96026.59;;;8.19;69.45
58092;BME280;43896;48.178;11.578;2023-04-08T06:23:57;96002.06;;;7.81;70.14
58092;BME280;43896;48.178;11.578;2023-04-08T06:26:22;96038.88;;;8.19;69.73
58092;BME280;43896;48.178;11.578;2023-04-08T06:28:48;96048.66;;;8.36;69.67
58092;BME280;43896;48.178;11.578;2023-04-08T06:31:13;96040.66;;;8.38;69.53
58092;BME280;43896;48.178;11.578;2023-04-08T06:33:38;96050.44;;;7.97;71.37
58092;BME280;43896;48.178;11.578;2023-04-08T06:36:05;96051.94;;;7.99;71.67
58092;BME280;43896;48.178;11.578;2023-04-08T06:38:31;96039.56;;;8.01;71.03
58092;BME280;43896;48.178;11.578;2023-04-08T06:41:05;96054.97;;;7.85;71.74
58092;BME280;43896;48.178;11.578;2023-04-08T06:43:32;96030.59;;;7.84;71.64
58092;BME280;43896;48.178;11.578;2023-04-08T06:45:57;96032.06;;;7.58;72.67
58092;BME280;43896;48.178;11.578;2023-04-08T06:48:23;96059.94;;;7.78;71.89
58092;BME280;43896;48.178;11.578;2023-04-08T06:50:55;96055.13;;;7.83;71.26
58092;BME280;43896;48.178;11.578;2023-04-08T06:53:22;96070.16;;;8.11;70.21
58092;BME280;43896;48.178;11.578;2023-04-08T06:55:48;96040.28;;;8.13;69.55
58092;BME280;43896;48.178;11.578;2023-04-08T06:58:13;96064.19;;;7.69;71.73
58092;BME280;43896;48.178;11.578;2023-04-08T07:00:39;96067.31;;;7.54;73.08
58092;BME280;43896;48.178;11.578;2023-04-08T07:03:04;96042.47;;;7.38;72.68
58092;BME280;43896;48.178;11.578;2023-04-08T07:05:30;96063.81;;;8.03;70.63
58092;BME280;43896;48.178;11.578;2023-04-08T07:07:55;96080.63;;;8.01;70.91
58092;BME280;43896;48.178;11.578;2023-04-08T07:10:21;96057.97;;;7.20;72.83
58092;BME280;43896;48.178;11.578;2023-04-08T07:12:46;96041.13;;;7.03;73.11
58092;BME280;43896;48.178;11.578;2023-04-08T07:15:11;96033.72;;;6.78;73.74
58092;BME280;43896;48.178;11.578;2023-04-08T07:17:37;96083.25;;;7.41;72.65
58092;BME280;43896;48.178;11.578;2023-04-08T07:20:04;96029.31;;;6.78;72.86
58092;BME280;43896;48.178;11.578;2023-04-08T07:22:29;96026.31;;;7.13;71.50
58092;BME280;43896;48.178;11.578;2023-04-08T07:24:55;96085.50;;;7.55;71.96
58092;BME280;43896;48.178;11.578;2023-04-08T07:27:20;96066.28;;;7.35;72.23
58092;BME280;43896;48.178;11.578;2023-04-08T07:29:45;96084.53;;;7.56;71.11
58092;BME280;43896;48.178;11.578;2023-04-08T07:32:10;96083.84;;;7.54;70.65
58092;BME280;43896;48.178;11.578;2023-04-08T07:34:36;96100.97;;;7.58;67.20
58092;BME280;43896;48.178;11.578;2023-04-08T07:37:02;96060.09;;;7.36;62.74
58092;BME280;43896;48.178;11.578;2023-04-08T07:39:27;96075.00;;;7.45;62.98
58092;BME280;43896;48.178;11.578;2023-04-08T07:41:53;96065.91;;;7.49;64.78
58092;BME280;43896;48.178;11.578;2023-04-08T07:44:18;96075.00;;;7.45;64.72
58092;BME280;43896;48.178;11.578;2023-04-08T07:46:44;96085.91;;;7.50;65.26
58092;BME280;43896;48.178;11.578;2023-04-08T07:49:10;96094.44;;;7.43;64.21
58092;BME280;43896;48.178;11.578;2023-04-08T07:51:36;96091.34;;;7.68;63.41
58092;BME280;43896;48.178;11.578;2023-04-08T07:54:02;96010.69;;;7.53;61.83
58092;BME280;43896;48.178;11.578;2023-04-08T07:56:27;96070.69;;;8.04;60.49
58092;BME280;43896;48.178;11.578;2023-04-08T07:58:53;96056.38;;;7.99;60.01
58092;BME280;43896;48.178;11.578;2023-04-08T08:01:19;96090.88;;;8.23;61.72
58092;BME280;43896;48.178;11.578;2023-04-08T08:03:47;96073.19;;;8.06;60.80
58092;BME280;43896;48.178;11.578;2023-04-08T08:06:12;96070.16;;;8.11;59.85
58092;BME280;43896;48.178;11.578;2023-04-08T08:08:37;96103.28;;;8.51;56.81
58092;BME280;43896;48.178;11.578;2023-04-08T08:11:03;96054.44;;;8.01;57.77
58092;BME280;43896;48.178;11.578;2023-04-08T08:13:28;96068.94;;;8.24;57.80
58092;BME280;43896;48.178;11.578;2023-04-08T08:15:54;96079.94;;;7.89;57.56
58092;BME280;43896;48.178;11.578;2023-04-08T08:18:19;96084.66;;;8.05;57.14
58092;BME280;43896;48.178;11.578;2023-04-08T08:20:45;96078.84;;;8.11;58.09
58092;BME280;43896;48.178;11.578;2023-04-08T08:23:11;96079.00;;;8.19;59.16
58092;BME280;43896;48.178;11.578;2023-04-08T08:25:36;96103.28;;;8.41;58.91
58092;BME280;43896;48.178;11.578;2023-04-08T08:28:01;96083.56;;;8.17;58.33
58092;BME280;43896;48.178;11.578;2023-04-08T08:30:27;96119.97;;;8.20;58.70
58092;BME280;43896;48.178;11.578;2023-04-08T08:32:52;96082.63;;;7.58;61.21
58092;BME280;43896;48.178;11.578;2023-04-08T08:35:18;96087.72;;;7.19;59.91
58092;BME280;43896;48.178;11.578;2023-04-08T08:37:43;96096.53;;;6.34;64.79
58092;BME280;43896;48.178;11.578;2023-04-08T08:40:09;96125.63;;;7.04;64.83
58092;BME280;43896;48.178;11.578;2023-04-08T08:42:34;96049.91;;;6.71;64.26
58092;BME280;43896;48.178;11.578;2023-04-08T08:45:01;96135.13;;;7.66;64.31
58092;BME280;43896;48.178;11.578;2023-04-08T08:47:29;96075.19;;;7.23;63.29
58092;BME280;43896;48.178;11.578;2023-04-08T08:49:55;96138.50;;;7.17;66.18
58092;BME280;43896;48.178;11.578;2023-04-08T08:52:20;96151.91;;;7.02;67.93
58092;BME280;43896;48.178;11.578;2023-04-08T08:54:47;96106.38;;;6.09;70.76
58092;BME280;43896;48.178;11.578;2023-04-08T08:57:16;96113.91;;;6.24;72.22
58092;BME280;43896;48.178;11.578;2023-04-08T08:59:44;96134.84;;;6.12;70.61
58092;BME280;43896;48.178;11.578;2023-04-08T09:02:27;96153.03;;;5.80;70.94
58092;BME280;43896;48.178;11.578;2023-04-08T09:04:58;96145.25;;;6.56;67.89
58092;BME280;43896;48.178;11.578;2023-04-08T09:07:27;96042.94;;;6.18;67.08
58092;BME280;43896;48.178;11.578;2023-04-08T09:09:54;96110.59;;;6.54;66.99
58092;BME280;43896;48.178;11.578;2023-04-08T09:12:21;96141.00;;;6.23;67.48
58092;BME280;43896;48.178;11.578;2023-04-08T09:14:46;96082.78;;;6.32;66.28
58092;BME280;43896;48.178;11.578;2023-04-08T09:17:13;96089.59;;;6.65;64.71
58092;BME280;43896;48.178;11.578;2023-04-08T09:19:39;96139.22;;;7.19;63.35
58092;BME280;43896;48.178;11.578;2023-04-08T09:22:09;96157.88;;;7.66;62.63
58092;BME280;43896;48.178;11.578;2023-04-08T09:24:36;96162.41;;;7.64;62.73
58092;BME280;43896;48.178;11.578;2023-04-08T09:27:02;96062.06;;;7.13;62.07
58092;BME280;43896;48.178;11.578;2023-04-08T09:29:27;96072.47;;;7.24;60.38
58092;BME280;43896;48.178;11.578;2023-04-08T09:31:56;96082.91;;;7.24;62.61
58092;BME280;43896;48.178;11.578;2023-04-08T09:34:23;96149.75;;;7.69;61.92
58092;BME280;43896;48.178;11.578;2023-04-08T09:36:49;96095.75;;;7.27;61.59
58092;BME280;43896;48.178;11.578;2023-04-08T09:39:15;96099.34;;;7.36;60.62
58092;BME280;43896;48.178;11.578;2023-04-08T09:41:41;96070.84;;;7.33;59.21
58092;BME280;43896;48.178;11.578;2023-04-08T09:44:09;96153.97;;;7.91;59.94
58092;BME280;43896;48.178;11.578;2023-04-08T09:52:29;96154.00;;;8.11;59.20
58092;BME280;43896;48.178;11.578;2023-04-08T09:55:02;96142.00;;;8.08;58.45
58092;BME280;43896;48.178;11.578;2023-04-08T09:57:50;96146.00;;;8.12;60.42
58092;BME280;43896;48.178;11.578;2023-04-08T10:00:17;96153.59;;;8.25;60.49
58092;BME280;43896;48.178;11.578;2023-04-08T10:05:24;96131.53;;;8.08;61.36
58092;BME280;43896;48.178;11.578;2023-04-08T10:07:50;96143.28;;;8.23;61.98
58092;BME280;43896;48.178;11.578;2023-04-08T10:10:16;96137.22;;;7.73;63.17
58092;BME280;43896;48.178;11.578;2023-04-08T10:12:42;96132.75;;;8.04;62.15
58092;BME280;43896;48.178;11.578;2023-04-08T10:18:39;96121.63;;;8.41;59.89
58092;BME280;43896;48.178;11.578;2023-04-08T10:20:47;96104.16;;;8.51;59.03
58092;BME280;43896;48.178;11.578;2023-04-08T10:23:17;96138.53;;;8.07;60.41
58092;BME280;43896;48.178;11.578;2023-04-08T10:25:46;96159.13;;;7.41;64.19
58092;BME280;43896;48.178;11.578;2023-04-08T10:30:41;96150.25;;;7.63;63.78
58092;BME280;43896;48.178;11.578;2023-04-08T10:33:12;96150.63;;;7.48;65.49
58092;BME280;43896;48.178;11.578;2023-04-08T10:35:53;96152.38;;;7.38;65.12
58092;BME280;43896;48.178;11.578;2023-04-08T10:38:19;96144.16;;;7.53;65.20
58092;BME280;43896;48.178;11.578;2023-04-08T10:40:47;96144.16;;;7.22;65.35
58092;BME280;43896;48.178;11.578;2023-04-08T10:43:33;96158.97;;;7.73;64.49
58092;BME280;43896;48.178;11.578;2023-04-08T10:46:04;96129.50;;;7.09;64.51
58092;BME280;43896;48.178;11.578;2023-04-08T10:48:29;96018.75;;;6.37;64.94
58092;BME280;43896;48.178;11.578;2023-04-08T10:50:57;96152.53;;;7.16;66.76
58092;BME280;43896;48.178;11.578;2023-04-08T10:53:30;96155.22;;;7.04;67.25
58092;BME280;43896;48.178;11.578;2023-04-08T10:56:12;96156.50;;;7.41;65.95
58092;BME280;43896;48.178;11.578;2023-04-08T10:58:53;96136.28;;;6.91;66.33
58092;BME280;43896;48.178;11.578;2023-04-08T11:01:20;96154.09;;;6.44;69.58
58092;BME280;43896;48.178;11.578;2023-04-08T11:03:45;96125.50;;;5.98;70.17
58092;BME280;43896;48.178;11.578;2023-04-08T11:06:11;96140.66;;;6.48;69.32
58092;BME280;43896;48.178;11.578;2023-04-08T11:08:39;96139.25;;;6.65;68.31
58092;BME280;43896;48.178;11.578;2023-04-08T11:11:06;96154.47;;;7.13;66.85
58092;BME280;43896;48.178;11.578;2023-04-08T11:13:34;96158.97;;;7.11;67.51
58092;BME280;43896;48.178;11.578;2023-04-08T11:16:01;96154.88;;;7.49;67.60
58092;BME280;43896;48.178;11.578;2023-04-08T11:18:29;96170.00;;;7.15;68.43
58092;BME280;43896;48.178;11.578;2023-04-08T11:20:56;96052.63;;;6.70;67.44
58092;BME280;43896;48.178;11.578;2023-04-08T11:23:23;96090.31;;;6.88;67.94
58092;BME280;43896;48.178;11.578;2023-04-08T11:25:49;96075.22;;;6.71;67.96
58092;BME280;43896;48.178;11.578;2023-04-08T11:28:16;96117.22;;;7.00;68.47
58092;BME280;43896;48.178;11.578;2023-04-08T11:30:42;96172.63;;;7.15;68.82
58092;BME280;43896;48.178;11.578;2023-04-08T11:33:08;96075.47;;;6.68;68.58
58092;BME280;43896;48.178;11.578;2023-04-08T11:35:33;96122.88;;;7.05;68.85
58092;BME280;43896;48.178;11.578;2023-04-08T11:37:59;96130.22;;;6.69;69.88
58092;BME280;43896;48.178;11.578;2023-04-08T11:40:28;96173.16;;;7.09;69.10
58092;BME280;43896;48.178;11.578;2023-04-08T11:42:54;96157.44;;;7.09;67.45
58092;BME280;43896;48.178;11.578;2023-04-08T11:45:20;96141.66;;;6.89;68.07
58092;BME280;43896;48.178;11.578;2023-04-08T11:47:46;96106.78;;;6.79;68.73
58092;BME280;43896;48.178;11.578;2023-04-08T11:50:21;96155.47;;;7.22;67.84
58092;BME280;43896;48.178;11.578;2023-04-08T11:52:48;96164.75;;;7.36;65.68
58092;BME280;43896;48.178;11.578;2023-04-08T11:55:28;96117.22;;;6.26;66.92
58092;BME280;43896;48.178;11.578;2023-04-08T11:57:54;96170.25;;;6.37;68.28
58092;BME280;43896;48.178;11.578;2023-04-08T12:00:20;96043.19;;;5.83;67.58
58092;BME280;43896;48.178;11.578;2023-04-08T12:02:46;96057.22;;;6.14;67.31
58092;BME280;43896;48.178;11.578;2023-04-08T12:05:13;96123.94;;;6.07;68.02
58092;BME280;43896;48.178;11.578;2023-04-08T12:07:39;96083.88;;;5.97;68.96
58092;BME280;43896;48.178;11.578;2023-04-08T12:10:04;96124.88;;;6.92;67.12
58092;BME280;43896;48.178;11.578;2023-04-08T12:12:30;96087.06;;;6.75;66.27
58092;BME280;43896;48.178;11.578;2023-04-08T12:14:55;96138.59;;;6.84;69.97
58092;BME280;43896;48.178;11.578;2023-04-08T12:17:21;96108.59;;;6.46;67.09
58092;BME280;43896;48.178;11.578;2023-04-08T12:19:46;96176.81;;;7.06;66.99
58092;BME280;43896;48.178;11.578;2023-04-08T12:22:11;96181.94;;;6.87;67.13
58092;BME280;43896;48.178;11.578;2023-04-08T12:24:37;96186.50;;;6.73;67.97
58092;BME280;43896;48.178;11.578;2023-04-08T12:27:02;96193.03;;;7.21;66.84
58092;BME280;43896;48.178;11.578;2023-04-08T12:29:29;96186.25;;;6.76;68.28
58092;BME280;43896;48.178;11.578;2023-04-08T12:31:54;96153.13;;;6.12;68.88
58092;BME280;43896;48.178;11.578;2023-04-08T12:34:20;96189.44;;;6.59;69.18
58092;BME280;43896;48.178;11.578;2023-04-08T12:36:45;96149.34;;;6.37;68.37
58092;BME280;43896;48.178;11.578;2023-04-08T12:39:11;96171.31;;;7.00;67.59
58092;BME280;43896;48.178;11.578;2023-04-08T12:41:36;96200.41;;;7.37;66.33
58092;BME280;43896;48.178;11.578;2023-04-08T12:44:02;96149.97;;;6.62;67.69
58092;BME280;43896;48.178;11.578;2023-04-08T12:46:27;96172.28;;;6.66;68.58
58092;BME280;43896;48.178;11.578;2023-04-08T12:48:53;96200.25;;;6.87;68.91
58092;BME280;43896;48.178;11.578;2023-04-08T12:51:18;96181.13;;;6.86;68.68
58092;BME280;43896;48.178;11.578;2023-04-08T12:53:44;96171.94;;;6.92;69.03
58092;BME280;43896;48.178;11.578;2023-04-08T12:56:09;96180.34;;;6.74;68.78
58092;BME280;43896;48.178;11.578;2023-04-08T12:58:35;96201.97;;;6.98;68.64
58092;BME280;43896;48.178;11.578;2023-04-08T13:01:00;96193.84;;;6.80;69.10
58092;BME280;43896;48.178;11.578;2023-04-08T13:03:25;96173.16;;;6.88;68.86
58092;BME280;43896;48.178;11.578;2023-04-08T13:05:54;96199.09;;;6.80;70.85
58092;BME280;43896;48.178;11.578;2023-04-08T13:08:20;96207.97;;;6.88;71.11
58092;BME280;43896;48.178;11.578;2023-04-08T13:10:46;96168.75;;;6.88;69.68
58092;BME280;43896;48.178;11.578;2023-04-08T13:13:19;96138.59;;;6.84;69.49